createdAt,value
2023-02-08T00:01:27.017Z,3.00
2023-02-08T00:03:54.457Z,3.10
2023-02-08T00:06:21.671Z,3.10
2023-02-08T00:08:48.755Z,3.00
2023-02-08T00:11:15.837Z,3.10
2023-02-08T00:13:43.075Z,3.10
2023-02-08T00:17:05.957Z,3.10
2023-02-08T00:19:39.222Z,3.10
2023-02-08T00:22:06.665Z,3.00
2023-02-08T00:24:33.893Z,3.10
2023-02-08T00:27:03.217Z,3.10
2023-02-08T00:29:30.368Z,3.10
2023-02-08T00:31:57.448Z,3.10
2023-02-08T00:34:24.453Z,3.10
2023-02-08T00:36:52.148Z,3.10
2023-02-08T00:39:21.248Z,3.10
2023-02-08T00:41:48.508Z,3.10
2023-02-08T00:44:15.611Z,3.10
2023-02-08T00:46:42.615Z,3.10
2023-02-08T00:49:09.697Z,3.10
2023-02-08T00:51:36.696Z,3.10
2023-02-08T00:54:03.964Z,3.10
2023-02-08T00:56:32.142Z,3.10
2023-02-08T00:58:59.155Z,3.10
2023-02-08T01:01:26.168Z,3.10
2023-02-08T01:03:53.437Z,3.20
2023-02-08T01:06:21.431Z,3.10
2023-02-08T01:08:48.489Z,3.10
2023-02-08T01:11:21.959Z,3.10
2023-02-08T01:13:50.018Z,3.10
2023-02-08T01:16:20.411Z,3.10
2023-02-08T01:18:49.323Z,3.10
2023-02-08T01:21:37.723Z,3.10
2023-02-08T01:24:23.958Z,3.10
2023-02-08T01:26:51.271Z,3.10
2023-02-08T01:29:19.348Z,3.10
2023-02-08T01:31:46.968Z,3.10
2023-02-08T01:34:16.881Z,3.10
2023-02-08T01:36:47.222Z,3.10
2023-02-08T01:39:14.960Z,3.10
2023-02-08T01:41:44.563Z,3.10
2023-02-08T01:44:11.633Z,3.10
2023-02-08T01:46:40.906Z,3.10
2023-02-08T01:49:23.294Z,3.10
2023-02-08T01:52:12.484Z,3.10
2023-02-08T01:54:51.111Z,3.20
2023-02-08T01:57:20.100Z,3.20
2023-02-08T01:59:54.913Z,3.20
2023-02-08T02:02:23.301Z,3.20
2023-02-08T02:04:52.366Z,3.20
2023-02-08T02:07:21.887Z,3.20
2023-02-08T02:09:59.966Z,3.20
2023-02-08T02:12:28.064Z,3.20
2023-02-08T02:14:55.555Z,3.20
2023-02-08T02:17:22.660Z,3.20
2023-02-08T02:20:09.012Z,3.30
2023-02-08T02:22:55.245Z,3.30
2023-02-08T02:25:54.402Z,3.30
2023-02-08T02:28:44.451Z,3.30
2023-02-08T02:31:29.270Z,3.30
2023-02-08T02:34:31.706Z,3.30
2023-02-08T02:37:04.174Z,3.30
2023-02-08T02:39:57.641Z,3.30
2023-02-08T02:42:46.640Z,3.30
2023-02-08T02:45:32.013Z,3.30
2023-02-08T02:48:08.154Z,3.40
2023-02-08T02:51:07.547Z,3.40
2023-02-08T02:53:34.514Z,3.40
2023-02-08T02:56:09.245Z,3.40
2023-02-08T02:58:46.500Z,3.40
2023-02-08T03:01:14.051Z,3.40
2023-02-08T03:03:41.289Z,3.40
2023-02-08T03:06:19.418Z,3.40
2023-02-08T03:09:14.570Z,3.50
2023-02-08T03:11:52.824Z,3.40
2023-02-08T03:14:41.988Z,3.50
2023-02-08T03:17:30.750Z,3.40
2023-02-08T03:20:25.963Z,3.40
2023-02-08T03:23:01.708Z,3.50
2023-02-08T03:25:52.308Z,3.50
2023-02-08T03:28:35.681Z,3.40
2023-02-08T03:31:16.044Z,3.50
2023-02-08T03:33:51.429Z,3.40
2023-02-08T03:36:26.479Z,3.40
2023-02-08T03:38:55.563Z,3.50
2023-02-08T03:41:32.133Z,3.50
2023-02-08T03:44:16.694Z,3.40
2023-02-08T03:46:51.419Z,3.40
2023-02-08T03:49:23.689Z,3.40
2023-02-08T03:51:52.890Z,3.40
2023-02-08T03:54:24.776Z,3.40
2023-02-08T03:57:13.256Z,3.40
2023-02-08T03:59:43.204Z,3.40
2023-02-08T04:02:18.704Z,3.40
2023-02-08T04:04:49.085Z,3.40
2023-02-08T04:07:18.473Z,3.40
2023-02-08T04:09:46.040Z,3.40
2023-02-08T04:12:13.374Z,3.40
2023-02-08T04:14:40.372Z,3.40
2023-02-08T04:17:07.540Z,3.40
2023-02-08T04:19:34.689Z,3.40
2023-02-08T04:22:01.666Z,3.40
2023-02-08T04:24:28.640Z,3.40
2023-02-08T04:26:55.705Z,3.40
2023-02-08T04:29:22.770Z,3.40
2023-02-08T04:31:49.800Z,3.40
2023-02-08T04:34:17.270Z,3.40
2023-02-08T04:36:44.416Z,3.40
2023-02-08T04:39:11.443Z,3.40
2023-02-08T04:41:38.450Z,3.40
2023-02-08T04:44:05.538Z,3.50
2023-02-08T04:46:32.904Z,3.40
2023-02-08T04:49:00.267Z,3.40
2023-02-08T04:51:27.316Z,3.50
2023-02-08T04:53:54.299Z,3.50
2023-02-08T04:56:23.708Z,3.50
2023-02-08T04:58:50.665Z,3.40
2023-02-08T05:01:18.021Z,3.40
2023-02-08T05:03:45.098Z,3.40
2023-02-08T05:06:12.219Z,3.50
2023-02-08T05:08:39.462Z,3.40
2023-02-08T05:11:06.642Z,3.40
2023-02-08T05:13:33.777Z,3.40
2023-02-08T05:16:00.859Z,3.50
2023-02-08T05:18:28.057Z,3.50
2023-02-08T05:21:00.015Z,3.50
2023-02-08T05:23:27.997Z,3.50
2023-02-08T05:25:55.230Z,3.50
2023-02-08T05:28:22.384Z,3.50
2023-02-08T05:30:49.686Z,3.60
2023-02-08T05:33:17.276Z,3.60
2023-02-08T05:35:46.138Z,3.60
2023-02-08T05:38:13.281Z,3.70
2023-02-08T05:40:40.783Z,3.60
2023-02-08T05:43:07.914Z,3.70
2023-02-08T05:45:35.072Z,3.80
2023-02-08T05:48:02.113Z,3.70
2023-02-08T05:50:29.318Z,3.70
2023-02-08T05:52:56.372Z,3.80
2023-02-08T05:55:23.563Z,3.80
2023-02-08T05:57:50.504Z,3.80
2023-02-08T06:00:17.765Z,3.80
2023-02-08T06:02:45.449Z,3.80
2023-02-08T06:05:12.770Z,3.90
2023-02-08T06:07:39.890Z,3.90
2023-02-08T06:10:08.559Z,3.90
2023-02-08T06:12:36.729Z,3.90
2023-02-08T06:15:03.860Z,3.90
2023-02-08T06:17:30.808Z,3.90
2023-02-08T06:19:57.787Z,3.90
2023-02-08T06:22:25.079Z,3.90
2023-02-08T06:25:21.916Z,4.00
2023-02-08T06:27:59.745Z,3.90
2023-02-08T06:30:26.824Z,3.90
2023-02-08T06:32:56.059Z,4.00
2023-02-08T06:35:25.488Z,4.00
2023-02-08T06:37:55.528Z,4.10
2023-02-08T06:40:23.208Z,4.10
2023-02-08T06:42:51.182Z,4.00
2023-02-08T06:45:21.170Z,4.10
2023-02-08T06:47:50.628Z,4.10
2023-02-08T06:50:26.832Z,4.10
2023-02-08T06:53:04.863Z,4.10
2023-02-08T06:55:34.896Z,4.10
2023-02-08T06:58:03.045Z,4.10
2023-02-08T07:00:30.312Z,4.20
2023-02-08T07:02:58.368Z,4.20
2023-02-08T07:05:25.480Z,4.20
2023-02-08T07:07:53.705Z,4.20
2023-02-08T07:10:20.725Z,4.20
2023-02-08T07:12:49.325Z,4.20
2023-02-08T07:15:17.577Z,4.20
2023-02-08T07:17:44.573Z,4.20
2023-02-08T07:20:13.218Z,4.30
2023-02-08T07:22:41.235Z,4.30
2023-02-08T07:25:09.194Z,4.30
2023-02-08T07:27:36.950Z,4.30
2023-02-08T07:30:04.478Z,4.30
2023-02-08T07:32:34.704Z,4.30
2023-02-08T07:35:02.006Z,4.30
2023-02-08T07:37:29.549Z,4.30
2023-02-08T07:39:56.912Z,4.30
2023-02-08T07:42:23.882Z,4.30
2023-02-08T07:44:53.741Z,4.40
2023-02-08T07:47:22.059Z,4.40
2023-02-08T07:49:51.589Z,4.40
2023-02-08T07:52:18.706Z,4.40
2023-02-08T07:54:45.797Z,4.50
2023-02-08T07:57:20.539Z,4.50
2023-02-08T07:59:48.382Z,4.50
2023-02-08T08:02:15.744Z,4.40
2023-02-08T08:04:43.163Z,4.40
2023-02-08T08:07:10.533Z,4.40
2023-02-08T08:09:39.498Z,4.50
2023-02-08T08:12:06.733Z,4.50
2023-02-08T08:14:33.797Z,4.50
2023-02-08T08:17:06.186Z,4.40
2023-02-08T08:19:33.232Z,4.50
2023-02-08T08:22:00.413Z,4.50
2023-02-08T08:24:27.450Z,4.50
2023-02-08T08:26:55.993Z,4.50
2023-02-08T08:29:23.473Z,4.50
2023-02-08T08:31:52.091Z,4.50
2023-02-08T08:34:19.290Z,4.50
2023-02-08T08:36:46.293Z,4.50
2023-02-08T08:39:13.372Z,4.50
2023-02-08T08:41:40.424Z,4.60
2023-02-08T08:44:07.524Z,4.60
2023-02-08T08:46:37.229Z,4.60
2023-02-08T08:49:04.524Z,4.70
2023-02-08T08:51:37.702Z,4.70
2023-02-08T08:54:05.811Z,4.70
2023-02-08T08:56:33.308Z,4.70
2023-02-08T08:59:01.682Z,4.70
2023-02-08T09:01:28.823Z,4.70
2023-02-08T09:03:56.140Z,4.70
2023-02-08T09:06:23.205Z,4.70
2023-02-08T09:08:51.746Z,4.70
2023-02-08T09:11:19.217Z,4.70
2023-02-08T09:13:46.471Z,4.80
2023-02-08T09:16:17.526Z,4.80
2023-02-08T09:18:45.175Z,4.80
2023-02-08T09:21:19.067Z,4.80
2023-02-08T09:23:49.129Z,4.80
2023-02-08T09:26:18.083Z,4.90
2023-02-08T09:28:45.546Z,4.80
2023-02-08T09:31:25.072Z,4.80
2023-02-08T09:33:53.454Z,4.80
2023-02-08T09:36:22.858Z,4.90
2023-02-08T09:38:51.909Z,4.90
2023-02-08T09:41:23.308Z,4.90
2023-02-08T09:44:21.469Z,4.90
2023-02-08T09:47:13.732Z,4.90
2023-02-08T09:49:59.648Z,5.00
2023-02-08T09:52:50.729Z,4.90
2023-02-08T09:55:32.302Z,5.00
2023-02-08T09:58:02.979Z,5.00
2023-02-08T10:00:43.245Z,5.00
2023-02-08T10:03:30.723Z,5.00
2023-02-08T10:05:58.244Z,5.00
2023-02-08T10:08:34.861Z,5.10
2023-02-08T10:11:12.842Z,5.10
2023-02-08T10:13:51.566Z,5.10
2023-02-08T10:16:45.855Z,5.10
2023-02-08T10:19:46.531Z,5.10
2023-02-08T10:22:52.036Z,5.10
2023-02-08T10:25:38.930Z,5.20
2023-02-08T10:28:28.948Z,5.20
2023-02-08T10:31:14.532Z,5.20
2023-02-08T10:34:17.136Z,5.20
2023-02-08T10:36:48.260Z,5.20
2023-02-08T10:39:19.403Z,5.20
2023-02-08T10:44:49.443Z,5.30
2023-02-08T10:47:46.282Z,5.30
2023-02-08T10:50:41.177Z,5.30
2023-02-08T10:53:17.073Z,5.40
2023-02-08T10:55:47.154Z,5.40
2023-02-08T10:58:27.404Z,5.40
2023-02-08T11:00:56.859Z,5.40
2023-02-08T11:03:43.107Z,5.40
2023-02-08T11:06:31.600Z,5.40
2023-02-08T11:09:35.918Z,5.50
2023-02-08T11:12:58.069Z,5.50
2023-02-08T11:15:09.391Z,5.50
2023-02-08T11:17:57.299Z,5.50
2023-02-08T11:20:38.483Z,5.50
2023-02-08T11:23:20.330Z,5.50
2023-02-08T11:25:52.242Z,5.60
2023-02-08T11:28:32.528Z,5.60
2023-02-08T11:31:13.779Z,5.70
2023-02-08T11:34:05.519Z,5.70
2023-02-08T11:36:43.084Z,5.70
2023-02-08T11:39:31.700Z,5.70
2023-02-08T11:42:02.028Z,5.70
2023-02-08T11:44:40.630Z,5.70
2023-02-08T11:47:11.105Z,5.70
2023-02-08T11:49:43.446Z,5.70
2023-02-08T11:52:32.355Z,5.70
2023-02-08T11:55:33.621Z,5.70
2023-02-08T11:58:23.642Z,5.70
2023-02-08T12:01:06.915Z,5.70
2023-02-08T12:03:39.892Z,5.80
2023-02-08T12:06:41.010Z,5.80
2023-02-08T12:09:31.632Z,5.80
2023-02-08T12:12:29.826Z,5.80
2023-02-08T12:15:16.333Z,5.80
2023-02-08T12:17:55.688Z,5.80
2023-02-08T12:20:53.954Z,5.80
2023-02-08T12:23:41.461Z,5.80
2023-02-08T12:26:24.251Z,5.80
2023-02-08T12:29:19.792Z,5.80
2023-02-08T12:32:23.522Z,5.80
2023-02-08T12:35:05.033Z,5.80
2023-02-08T12:38:39.031Z,5.80
2023-02-08T12:41:27.644Z,5.80
2023-02-08T12:44:24.207Z,5.80
2023-02-08T12:47:28.968Z,5.80
2023-02-08T12:50:28.282Z,5.80
2023-02-08T12:53:02.449Z,5.80
2023-02-08T12:55:38.326Z,5.90
2023-02-08T12:58:50.414Z,5.90
2023-02-08T13:01:26.419Z,5.90
2023-02-08T13:04:06.461Z,5.90
2023-02-08T13:06:47.597Z,6.00
2023-02-08T13:09:35.529Z,5.90
2023-02-08T13:12:09.011Z,5.90
2023-02-08T13:14:50.907Z,6.00
2023-02-08T13:17:26.668Z,6.00
2023-02-08T13:20:05.410Z,6.00
2023-02-08T13:22:39.809Z,6.00
2023-02-08T13:25:35.935Z,5.90
2023-02-08T13:28:27.869Z,5.90
2023-02-08T13:31:07.503Z,5.90
2023-02-08T13:34:08.671Z,5.90
2023-02-08T13:36:37.183Z,5.90
2023-02-08T13:39:07.839Z,5.90
2023-02-08T13:41:44.201Z,5.90
2023-02-08T13:44:33.235Z,5.90
2023-02-08T13:47:00.904Z,5.90
2023-02-08T13:49:43.989Z,5.90
2023-02-08T13:52:46.578Z,5.90
2023-02-08T13:55:41.736Z,5.90
2023-02-08T13:58:14.928Z,5.90
2023-02-08T14:00:53.906Z,5.90
2023-02-08T14:03:29.002Z,5.80
2023-02-08T14:06:17.309Z,5.90
2023-02-08T14:08:46.542Z,5.90
2023-02-08T14:11:32.427Z,5.90
2023-02-08T14:14:24.914Z,5.90
2023-02-08T14:17:23.235Z,5.80
2023-02-08T14:19:59.980Z,5.80
2023-02-08T14:22:33.582Z,5.90
2023-02-08T14:25:07.527Z,5.80
2023-02-08T14:27:42.277Z,5.80
2023-02-08T14:30:18.111Z,5.80
2023-02-08T14:33:13.006Z,5.80
2023-02-08T14:35:59.462Z,5.80
2023-02-08T14:38:53.411Z,5.80
2023-02-08T14:41:54.585Z,5.80
2023-02-08T14:44:41.823Z,5.80
2023-02-08T14:47:13.708Z,5.80
2023-02-08T14:49:43.933Z,5.70
2023-02-08T14:52:24.763Z,5.70
2023-02-08T14:55:00.971Z,5.70
2023-02-08T14:57:35.341Z,5.70
2023-02-08T15:00:07.714Z,5.70
2023-02-08T15:02:39.426Z,5.70
2023-02-08T15:05:10.240Z,5.70
2023-02-08T15:07:58.218Z,5.70
2023-02-08T15:10:28.855Z,5.70
2023-02-08T15:13:03.855Z,5.70
2023-02-08T15:15:37.591Z,5.60
2023-02-08T15:18:07.368Z,5.60
2023-02-08T15:20:36.041Z,5.60
2023-02-08T15:23:21.528Z,5.60
2023-02-08T15:26:21.805Z,5.60
2023-02-08T15:28:49.193Z,5.60
2023-02-08T15:31:23.111Z,5.50
2023-02-08T15:33:52.522Z,5.50
2023-02-08T15:36:25.408Z,5.50
2023-02-08T15:38:54.114Z,5.50
2023-02-08T15:41:28.290Z,5.40
2023-02-08T15:44:17.897Z,5.40
2023-02-08T15:46:47.191Z,5.40
2023-02-08T15:49:30.449Z,5.30
2023-02-08T15:51:58.055Z,5.30
2023-02-08T15:54:25.864Z,5.20
2023-02-08T15:57:07.987Z,5.20
2023-02-08T15:59:40.050Z,5.20
2023-02-08T16:02:31.352Z,5.20
2023-02-08T16:05:00.307Z,5.10
2023-02-08T16:07:48.637Z,5.10
2023-02-08T16:10:39.137Z,5.10
2023-02-08T16:13:19.146Z,5.10
2023-02-08T16:15:51.886Z,5.10
2023-02-08T16:18:40.828Z,5.10
2023-02-08T16:21:30.303Z,5.10
2023-02-08T16:23:59.145Z,5.00
2023-02-08T16:26:35.408Z,5.00
2023-02-08T16:29:07.591Z,5.10
2023-02-08T16:31:35.991Z,5.00
2023-02-08T16:34:17.594Z,5.00
2023-02-08T16:36:51.191Z,5.00
2023-02-08T16:39:21.985Z,5.00
2023-02-08T16:42:13.954Z,5.00
2023-02-08T16:45:02.367Z,5.00
2023-02-08T16:47:40.706Z,5.00
2023-02-08T16:50:10.958Z,5.00
2023-02-08T16:52:38.218Z,5.00
2023-02-08T16:55:06.717Z,4.90
2023-02-08T16:57:59.977Z,5.00
2023-02-08T17:00:34.708Z,4.90
2023-02-08T17:03:02.478Z,5.00
2023-02-08T17:05:32.583Z,5.00
2023-02-08T17:08:01.199Z,5.00
2023-02-08T17:10:31.395Z,4.90
2023-02-08T17:13:17.343Z,4.90
2023-02-08T17:15:47.942Z,5.00
2023-02-08T17:18:15.372Z,4.90
2023-02-08T17:20:43.453Z,4.90
2023-02-08T17:23:10.919Z,4.90
2023-02-08T17:25:38.100Z,4.90
2023-02-08T17:28:20.316Z,4.90
2023-02-08T17:30:50.203Z,4.90
2023-02-08T17:33:20.413Z,4.90
2023-02-08T17:35:49.811Z,4.90
2023-02-08T17:38:18.677Z,4.90
2023-02-08T17:40:46.131Z,4.90
2023-02-08T17:43:14.061Z,4.90
2023-02-08T17:45:45.938Z,4.90
2023-02-08T17:48:13.884Z,4.90
2023-02-08T17:50:43.911Z,4.80
2023-02-08T17:53:11.286Z,4.80
2023-02-08T17:55:42.235Z,4.80
2023-02-08T17:58:09.373Z,4.80
2023-02-08T18:00:36.736Z,4.80
2023-02-08T18:03:03.960Z,4.80
2023-02-08T18:05:31.529Z,4.80
2023-02-08T18:08:01.666Z,4.70
2023-02-08T18:10:28.819Z,4.80
2023-02-08T18:12:56.096Z,4.80
2023-02-08T18:15:24.209Z,4.80
2023-02-08T18:17:51.425Z,4.80
2023-02-08T18:20:18.841Z,4.80
2023-02-08T18:22:46.104Z,4.70
2023-02-08T18:25:16.158Z,4.70
2023-02-08T18:27:43.440Z,4.70
2023-02-08T18:30:12.322Z,4.70
2023-02-08T18:32:40.681Z,4.60
2023-02-08T18:35:09.387Z,4.60
2023-02-08T18:37:38.158Z,4.60
2023-02-08T18:40:08.477Z,4.60
2023-02-08T18:42:36.381Z,4.60
2023-02-08T18:45:05.868Z,4.60
2023-02-08T18:47:34.540Z,4.60
2023-02-08T18:50:01.922Z,4.60
2023-02-08T18:52:31.376Z,4.60
2023-02-08T18:55:00.231Z,4.60
2023-02-08T18:57:27.435Z,4.60
2023-02-08T18:59:55.243Z,4.50
2023-02-08T19:02:27.193Z,4.50
2023-02-08T19:04:54.394Z,4.50
2023-02-08T19:07:24.710Z,4.50
2023-02-08T19:09:51.740Z,4.50
2023-02-08T19:12:19.540Z,4.50
2023-02-08T19:14:51.019Z,4.50
2023-02-08T19:17:18.486Z,4.50
2023-02-08T19:19:47.560Z,4.40
2023-02-08T19:22:15.050Z,4.40
2023-02-08T19:24:43.433Z,4.40
2023-02-08T19:27:10.446Z,4.40
2023-02-08T19:29:37.675Z,4.40
2023-02-08T19:32:05.050Z,4.40
2023-02-08T19:34:32.246Z,4.40
2023-02-08T19:36:59.422Z,4.40
2023-02-08T19:39:27.542Z,4.40
2023-02-08T19:41:56.394Z,4.30
2023-02-08T19:44:23.550Z,4.30
2023-02-08T19:46:54.935Z,4.30
2023-02-08T19:49:25.878Z,4.30
2023-02-08T19:51:53.517Z,4.30
2023-02-08T19:54:24.692Z,4.30
2023-02-08T19:56:55.454Z,4.20
2023-02-08T19:59:25.801Z,4.20
2023-02-08T20:01:54.290Z,4.10
2023-02-08T20:04:22.269Z,4.10
2023-02-08T20:06:52.726Z,4.00
2023-02-08T20:09:20.328Z,4.00
2023-02-08T20:11:56.826Z,4.00
2023-02-08T20:14:25.528Z,3.90
2023-02-08T20:16:52.760Z,3.90
2023-02-08T20:19:19.910Z,3.90
2023-02-08T20:21:47.030Z,3.90
2023-02-08T20:24:15.295Z,3.80
2023-02-08T20:26:44.898Z,3.80
2023-02-08T20:29:13.539Z,3.70
2023-02-08T20:31:43.144Z,3.70
2023-02-08T20:34:14.140Z,3.60
2023-02-08T20:36:54.535Z,3.60
2023-02-08T20:39:28.231Z,3.50
2023-02-08T20:41:58.253Z,3.40
2023-02-08T20:44:28.014Z,3.40
2023-02-08T20:46:55.564Z,3.40
2023-02-08T20:49:27.259Z,3.40
2023-02-08T20:51:58.711Z,3.50
2023-02-08T20:54:26.649Z,3.40
2023-02-08T20:57:01.742Z,3.40
2023-02-08T20:59:35.236Z,3.40
2023-02-08T21:02:05.068Z,3.30
2023-02-08T21:04:33.221Z,3.30
2023-02-08T21:07:01.432Z,3.20
2023-02-08T21:09:28.595Z,3.20
2023-02-08T21:11:56.482Z,3.10
2023-02-08T21:14:24.628Z,3.10
2023-02-08T21:16:56.892Z,3.10
2023-02-08T21:22:07.471Z,3.00
2023-02-08T21:24:47.987Z,2.90
2023-02-08T21:27:15.292Z,2.90
2023-02-08T21:29:42.454Z,2.80
2023-02-08T21:32:12.646Z,2.80
2023-02-08T21:34:40.004Z,2.70
2023-02-08T21:37:07.208Z,2.70
2023-02-08T21:39:34.175Z,2.70
2023-02-08T21:42:01.374Z,2.60
2023-02-08T21:44:29.993Z,2.60
2023-02-08T21:46:56.991Z,2.50
2023-02-08T21:49:43.739Z,2.40
2023-02-08T21:52:31.578Z,2.40
2023-02-08T21:54:58.622Z,2.30
2023-02-08T21:57:28.712Z,2.30
2023-02-08T22:00:05.116Z,2.30
2023-02-08T22:02:32.262Z,2.20
2023-02-08T22:05:01.519Z,2.20
2023-02-08T22:07:29.693Z,2.20
2023-02-08T22:09:57.376Z,2.10
2023-02-08T22:12:24.420Z,2.10
2023-02-08T22:14:51.672Z,2.10
2023-02-08T22:17:19.318Z,2.00
2023-02-08T22:19:46.871Z,2.00
2023-02-08T22:22:13.914Z,2.00
2023-02-08T22:24:42.781Z,1.90
2023-02-08T22:27:10.355Z,1.90
2023-02-08T22:29:37.522Z,1.90
2023-02-08T22:32:05.786Z,1.90
2023-02-08T22:34:32.869Z,1.80
2023-02-08T22:37:03.860Z,1.80
2023-02-08T22:39:33.143Z,1.80
2023-02-08T22:42:00.256Z,1.70
2023-02-08T22:44:27.455Z,1.80
2023-02-08T22:46:55.435Z,1.70
2023-02-08T22:49:22.575Z,1.70
2023-02-08T22:51:49.568Z,1.80
2023-02-08T22:54:16.620Z,1.80
2023-02-08T22:56:43.890Z,1.70
2023-02-08T22:59:10.978Z,1.70
2023-02-08T23:01:38.091Z,1.70
2023-02-08T23:04:05.676Z,1.70
2023-02-08T23:06:33.040Z,1.70
2023-02-08T23:08:59.987Z,1.70
2023-02-08T23:11:27.181Z,1.70
2023-02-08T23:13:55.045Z,1.70
2023-02-08T23:16:22.258Z,1.70
2023-02-08T23:18:49.509Z,1.70
2023-02-08T23:21:20.087Z,1.70
2023-02-08T23:23:49.927Z,1.70
2023-02-08T23:26:20.862Z,1.70
2023-02-08T23:28:51.257Z,1.70
2023-02-08T23:31:18.760Z,1.70
2023-02-08T23:33:45.931Z,1.70
2023-02-08T23:36:21.764Z,1.70
2023-02-08T23:38:49.911Z,1.70
2023-02-08T23:41:19.593Z,1.70
2023-02-08T23:43:46.716Z,1.70
2023-02-08T23:46:20.417Z,1.70
2023-02-08T23:48:50.090Z,1.60
2023-02-08T23:51:19.442Z,1.70
2023-02-08T23:53:46.669Z,1.70
2023-02-08T23:56:18.603Z,1.70
2023-02-08T23:58:48.780Z,1.70
